sensor_id;sensor_type;location;lat;lon;timestamp;pressure;altitude;pressure_sealevel;temperature;humidity
43804;BME280;29430;52.924;-2.388;2023-03-25T00:00:54;97023.56;;;7.62;97.20
43804;BME280;29430;52.924;-2.388;2023-03-25T00:05:48;97023.03;;;7.65;96.54
43804;BME280;29430;52.924;-2.388;2023-03-25T00:10:40;97015.47;;;7.62;96.10
43804;BME280;29430;52.924;-2.388;2023-03-25T00:15:32;97028.72;;;7.63;96.35
43804;BME280;29430;52.924;-2.388;2023-03-25T00:20:26;97040.56;;;7.67;95.38
43804;BME280;29430;52.924;-2.388;2023-03-25T00:25:18;97056.78;;;7.73;95.22
43804;BME280;29430;52.924;-2.388;2023-03-25T00:30:11;97063.00;;;7.78;94.72
43804;BME280;29430;52.924;-2.388;2023-03-25T00:35:03;97064.91;;;7.83;93.97
43804;BME280;29430;52.924;-2.388;2023-03-25T00:39:55;97063.81;;;7.84;94.02
43804;BME280;29430;52.924;-2.388;2023-03-25T00:44:47;97063.03;;;7.83;94.36
43804;BME280;29430;52.924;-2.388;2023-03-25T00:49:39;97062.19;;;7.83;94.31
43804;BME280;29430;52.924;-2.388;2023-03-25T00:54:31;97064.09;;;7.82;94.31
43804;BME280;29430;52.924;-2.388;2023-03-25T00:59:24;97064.38;;;7.81;94.61
43804;BME280;29430;52.924;-2.388;2023-03-25T01:04:16;97075.94;;;7.76;94.44
43804;BME280;29430;52.924;-2.388;2023-03-25T01:09:11;97077.59;;;7.77;94.22
43804;BME280;29430;52.924;-2.388;2023-03-25T01:14:06;97075.94;;;7.76;94.78
43804;BME280;29430;52.924;-2.388;2023-03-25T01:18:58;97085.94;;;7.76;95.01
43804;BME280;29430;52.924;-2.388;2023-03-25T01:23:50;97073.53;;;7.75;94.62
43804;BME280;29430;52.924;-2.388;2023-03-25T01:28:43;97085.09;;;7.75;94.63
43804;BME280;29430;52.924;-2.388;2023-03-25T01:33:34;97082.41;;;7.70;94.62
43804;BME280;29430;52.924;-2.388;2023-03-25T01:38:27;97074.84;;;7.67;95.14
43804;BME280;29430;52.924;-2.388;2023-03-25T01:43:20;97070.50;;;7.66;94.54
43804;BME280;29430;52.924;-2.388;2023-03-25T01:48:31;97085.38;;;7.68;94.75
43804;BME280;29430;52.924;-2.388;2023-03-25T01:53:28;97085.09;;;7.65;94.96
43804;BME280;29430;52.924;-2.388;2023-03-25T01:58:21;97086.16;;;7.64;94.81
43804;BME280;29430;52.924;-2.388;2023-03-25T02:03:16;97074.31;;;7.65;94.61
43804;BME280;29430;52.924;-2.388;2023-03-25T02:08:11;97084.00;;;7.61;94.23
43804;BME280;29430;52.924;-2.388;2023-03-25T02:13:06;97071.28;;;7.56;95.62
43804;BME280;29430;52.924;-2.388;2023-03-25T02:28:41;97075.56;;;7.47;97.17
43804;BME280;29430;52.924;-2.388;2023-03-25T02:33:45;97074.19;;;7.44;98.21
43804;BME280;29430;52.924;-2.388;2023-03-25T02:48:34;97102.78;;;7.40;98.70
43804;BME280;29430;52.924;-2.388;2023-03-25T02:53:29;97101.44;;;7.43;98.35
43804;BME280;29430;52.924;-2.388;2023-03-25T02:58:26;97114.91;;;7.43;97.48
43804;BME280;29430;52.924;-2.388;2023-03-25T03:03:20;97125.41;;;7.34;96.69
43804;BME280;29430;52.924;-2.388;2023-03-25T03:18:43;97142.63;;;7.28;97.11
43804;BME280;29430;52.924;-2.388;2023-03-25T03:28:47;97143.69;;;7.27;97.78
43804;BME280;29430;52.924;-2.388;2023-03-25T03:34:03;97154.47;;;7.27;97.82
43804;BME280;29430;52.924;-2.388;2023-03-25T03:39:04;97176.28;;;7.25;97.43
43804;BME280;29430;52.924;-2.388;2023-03-25T03:44:03;97155.53;;;7.26;96.62
43804;BME280;29430;52.924;-2.388;2023-03-25T03:49:00;97167.66;;;7.23;95.59
43804;BME280;29430;52.924;-2.388;2023-03-25T03:54:04;97166.28;;;7.21;94.90
43804;BME280;29430;52.924;-2.388;2023-03-25T03:59:00;97182.97;;;7.17;93.76
43804;BME280;29430;52.924;-2.388;2023-03-25T04:03:57;97214.78;;;7.15;92.78
43804;BME280;29430;52.924;-2.388;2023-03-25T04:09:03;97225.00;;;7.13;92.38
43804;BME280;29430;52.924;-2.388;2023-03-25T04:13:59;97233.34;;;7.12;92.27
43804;BME280;29430;52.924;-2.388;2023-03-25T04:18:53;97250.09;;;7.14;92.22
43804;BME280;29430;52.924;-2.388;2023-03-25T04:23:45;97249.25;;;7.13;92.91
43804;BME280;29430;52.924;-2.388;2023-03-25T04:28:37;97262.22;;;7.16;93.61
43804;BME280;29430;52.924;-2.388;2023-03-25T04:33:32;97257.06;;;7.15;94.38
43804;BME280;29430;52.924;-2.388;2023-03-25T04:38:23;97272.22;;;7.21;95.52
43804;BME280;29430;52.924;-2.388;2023-03-25T04:43:16;97279.25;;;7.22;96.51
43804;BME280;29430;52.924;-2.388;2023-03-25T04:48:36;97281.41;;;7.20;98.21
43804;BME280;29430;52.924;-2.388;2023-03-25T04:53:32;97290.28;;;7.21;99.32
43804;BME280;29430;52.924;-2.388;2023-03-25T04:58:23;97299.44;;;7.20;100.00
43804;BME280;29430;52.924;-2.388;2023-03-25T05:03:16;97291.56;;;7.13;100.00
43804;BME280;29430;52.924;-2.388;2023-03-25T05:08:08;97277.53;;;7.11;100.00
43804;BME280;29430;52.924;-2.388;2023-03-25T05:13:04;97284.25;;;7.08;100.00
43804;BME280;29430;52.924;-2.388;2023-03-25T05:17:57;97293.66;;;7.06;100.00
43804;BME280;29430;52.924;-2.388;2023-03-25T05:22:49;97300.38;;;7.03;100.00
43804;BME280;29430;52.924;-2.388;2023-03-25T05:27:43;97327.25;;;6.98;100.00
43804;BME280;29430;52.924;-2.388;2023-03-25T05:32:37;97327.53;;;6.96;100.00
43804;BME280;29430;52.924;-2.388;2023-03-25T05:37:31;97344.00;;;7.00;100.00
43804;BME280;29430;52.924;-2.388;2023-03-25T05:42:24;97342.38;;;6.99;100.00
43804;BME280;29430;52.924;-2.388;2023-03-25T05:47:24;97354.78;;;7.00;100.00
43804;BME280;29430;52.924;-2.388;2023-03-25T05:52:17;97379.34;;;7.04;100.00
43804;BME280;29430;52.924;-2.388;2023-03-25T05:57:10;97390.69;;;7.06;100.00
43804;BME280;29430;52.924;-2.388;2023-03-25T06:02:02;97391.78;;;7.05;100.00
43804;BME280;29430;52.924;-2.388;2023-03-25T06:06:54;97401.47;;;7.06;100.00
43804;BME280;29430;52.924;-2.388;2023-03-25T06:11:46;97414.13;;;7.05;100.00
43804;BME280;29430;52.924;-2.388;2023-03-25T06:16:43;97417.38;;;7.07;100.00
43804;BME280;29430;52.924;-2.388;2023-03-25T06:21:35;97417.88;;;7.04;100.00
43804;BME280;29430;52.924;-2.388;2023-03-25T06:26:27;97430.88;;;7.07;100.00
43804;BME280;29430;52.924;-2.388;2023-03-25T06:31:24;97447.38;;;7.11;100.00
43804;BME280;29430;52.924;-2.388;2023-03-25T06:36:17;97455.75;;;7.14;100.00
43804;BME280;29430;52.924;-2.388;2023-03-25T06:41:09;97474.38;;;7.16;100.00
43804;BME280;29430;52.924;-2.388;2023-03-25T06:46:01;97474.38;;;7.16;100.00
43804;BME280;29430;52.924;-2.388;2023-03-25T06:50:53;97479.75;;;7.16;100.00
43804;BME280;29430;52.924;-2.388;2023-03-25T06:55:46;97493.25;;;7.16;100.00
43804;BME280;29430;52.924;-2.388;2023-03-25T07:00:38;97503.47;;;7.14;100.00
43804;BME280;29430;52.924;-2.388;2023-03-25T07:05:32;97524.78;;;7.15;100.00
43804;BME280;29430;52.924;-2.388;2023-03-25T07:10:25;97526.66;;;7.15;100.00
43804;BME280;29430;52.924;-2.388;2023-03-25T07:15:18;97542.91;;;7.20;100.00
43804;BME280;29430;52.924;-2.388;2023-03-25T07:20:11;97543.97;;;7.19;100.00
43804;BME280;29430;52.924;-2.388;2023-03-25T07:25:06;97560.44;;;7.23;100.00
43804;BME280;29430;52.924;-2.388;2023-03-25T07:29:58;97570.44;;;7.22;100.00
43804;BME280;29430;52.924;-2.388;2023-03-25T07:34:49;97582.09;;;7.28;100.00
43804;BME280;29430;52.924;-2.388;2023-03-25T07:39:41;97595.41;;;7.34;100.00
43804;BME280;29430;52.924;-2.388;2023-03-25T07:44:33;97604.75;;;7.49;100.00
43804;BME280;29430;52.924;-2.388;2023-03-25T07:49:25;97604.88;;;7.59;100.00
43804;BME280;29430;52.924;-2.388;2023-03-25T07:54:16;97623.31;;;7.67;100.00
43804;BME280;29430;52.924;-2.388;2023-03-25T07:59:08;97632.25;;;7.68;100.00
43804;BME280;29430;52.924;-2.388;2023-03-25T08:04:00;97637.66;;;7.68;100.00
43804;BME280;29430;52.924;-2.388;2023-03-25T08:08:51;97647.94;;;7.71;100.00
43804;BME280;29430;52.924;-2.388;2023-03-25T08:13:43;97659.03;;;7.75;100.00
43804;BME280;29430;52.924;-2.388;2023-03-25T08:18:35;97657.75;;;7.77;100.00
43804;BME280;29430;52.924;-2.388;2023-03-25T08:23:28;97666.69;;;7.83;100.00
43804;BME280;29430;52.924;-2.388;2023-03-25T08:28:21;97684.28;;;7.85;100.00
43804;BME280;29430;52.924;-2.388;2023-03-25T08:33:14;97703.44;;;7.84;100.00
43804;BME280;29430;52.924;-2.388;2023-03-25T08:38:07;97704.31;;;7.89;100.00
43804;BME280;29430;52.924;-2.388;2023-03-25T08:42:59;97706.31;;;7.99;100.00
43804;BME280;29430;52.924;-2.388;2023-03-25T08:47:51;97707.50;;;8.09;100.00
43804;BME280;29430;52.924;-2.388;2023-03-25T08:52:43;97715.25;;;8.22;100.00
43804;BME280;29430;52.924;-2.388;2023-03-25T08:57:35;97720.69;;;8.49;100.00
43804;BME280;29430;52.924;-2.388;2023-03-25T09:02:27;97727.81;;;8.83;99.77
43804;BME280;29430;52.924;-2.388;2023-03-25T09:07:18;97748.47;;;9.26;100.00
43804;BME280;29430;52.924;-2.388;2023-03-25T09:12:10;97742.13;;;9.85;97.97
43804;BME280;29430;52.924;-2.388;2023-03-25T09:17:02;97754.44;;;10.72;95.31
43804;BME280;29430;52.924;-2.388;2023-03-25T09:21:56;97754.50;;;11.59;89.11
43804;BME280;29430;52.924;-2.388;2023-03-25T09:26:48;97762.81;;;12.25;84.81
43804;BME280;29430;52.924;-2.388;2023-03-25T09:31:40;97758.13;;;12.96;78.83
43804;BME280;29430;52.924;-2.388;2023-03-25T09:36:31;97772.81;;;13.45;75.28
43804;BME280;29430;52.924;-2.388;2023-03-25T09:47:03;97787.94;;;14.20;68.54
43804;BME280;29430;52.924;-2.388;2023-03-25T09:51:56;97796.28;;;14.53;68.84
43804;BME280;29430;52.924;-2.388;2023-03-25T09:56:48;97806.97;;;14.73;67.75
43804;BME280;29430;52.924;-2.388;2023-03-25T10:02:00;97795.81;;;14.94;64.48
43804;BME280;29430;52.924;-2.388;2023-03-25T10:07:19;97821.19;;;15.13;62.39
43804;BME280;29430;52.924;-2.388;2023-03-25T10:27:36;97846.63;;;13.83;63.45
43804;BME280;29430;52.924;-2.388;2023-03-25T10:32:35;97845.44;;;13.59;65.13
43804;BME280;29430;52.924;-2.388;2023-03-25T10:37:31;97865.44;;;14.13;66.46
43804;BME280;29430;52.924;-2.388;2023-03-25T10:42:43;97859.50;;;14.84;63.41
43804;BME280;29430;52.924;-2.388;2023-03-25T10:47:39;97876.19;;;15.26;60.70
43804;BME280;29430;52.924;-2.388;2023-03-25T10:52:31;97874.03;;;15.22;58.30
43804;BME280;29430;52.924;-2.388;2023-03-25T10:57:27;97891.56;;;15.40;59.09
43804;BME280;29430;52.924;-2.388;2023-03-25T11:02:21;97885.66;;;15.52;58.42
43804;BME280;29430;52.924;-2.388;2023-03-25T11:07:20;97889.00;;;15.49;59.15
43804;BME280;29430;52.924;-2.388;2023-03-25T11:12:17;97901.22;;;15.33;61.04
43804;BME280;29430;52.924;-2.388;2023-03-25T11:17:15;97911.63;;;14.88;63.20
43804;BME280;29430;52.924;-2.388;2023-03-25T11:22:11;97904.13;;;14.45;62.67
43804;BME280;29430;52.924;-2.388;2023-03-25T11:27:06;97904.31;;;14.24;63.61
43804;BME280;29430;52.924;-2.388;2023-03-25T11:37:01;97907.34;;;14.47;67.13
43804;BME280;29430;52.924;-2.388;2023-03-25T11:41:56;97916.84;;;15.08;63.49
43804;BME280;29430;52.924;-2.388;2023-03-25T11:46:51;97928.25;;;15.34;62.68
43804;BME280;29430;52.924;-2.388;2023-03-25T11:51:44;97921.78;;;15.68;62.46
43804;BME280;29430;52.924;-2.388;2023-03-25T11:56:41;97930.94;;;15.97;59.91
43804;BME280;29430;52.924;-2.388;2023-03-25T12:01:45;97925.03;;;15.89;57.22
43804;BME280;29430;52.924;-2.388;2023-03-25T12:06:52;97942.91;;;15.82;60.04
43804;BME280;29430;52.924;-2.388;2023-03-25T12:17:03;97970.97;;;15.01;64.78
43804;BME280;29430;52.924;-2.388;2023-03-25T12:37:19;97970.69;;;12.89;73.57
43804;BME280;29430;52.924;-2.388;2023-03-25T12:42:27;97983.50;;;12.68;74.64
43804;BME280;29430;52.924;-2.388;2023-03-25T12:47:27;97980.00;;;12.42;77.73
43804;BME280;29430;52.924;-2.388;2023-03-25T13:07:51;97990.63;;;12.33;83.18
43804;BME280;29430;52.924;-2.388;2023-03-25T13:12:54;97990.63;;;12.48;82.82
43804;BME280;29430;52.924;-2.388;2023-03-25T13:17:52;97995.50;;;12.72;85.22
43804;BME280;29430;52.924;-2.388;2023-03-25T13:22:49;97992.72;;;12.93;81.19
43804;BME280;29430;52.924;-2.388;2023-03-25T13:27:43;98001.44;;;12.95;79.04
43804;BME280;29430;52.924;-2.388;2023-03-25T13:32:41;98002.00;;;12.81;77.52
43804;BME280;29430;52.924;-2.388;2023-03-25T13:37:45;98013.97;;;12.80;78.43
43804;BME280;29430;52.924;-2.388;2023-03-25T13:52:57;98021.31;;;12.85;73.33
43804;BME280;29430;52.924;-2.388;2023-03-25T14:03:18;98010.13;;;12.97;71.83
43804;BME280;29430;52.924;-2.388;2023-03-25T14:08:33;98007.38;;;13.12;71.01
43804;BME280;29430;52.924;-2.388;2023-03-25T14:13:32;98002.13;;;13.31;67.71
43804;BME280;29430;52.924;-2.388;2023-03-25T14:18:27;98016.59;;;13.37;66.92
43804;BME280;29430;52.924;-2.388;2023-03-25T14:23:22;98020.69;;;13.24;66.05
43804;BME280;29430;52.924;-2.388;2023-03-25T14:28:19;98033.19;;;13.30;67.94
43804;BME280;29430;52.924;-2.388;2023-03-25T14:33:12;98031.81;;;13.43;65.68
43804;BME280;29430;52.924;-2.388;2023-03-25T14:42:59;98050.56;;;13.50;63.37
43804;BME280;29430;52.924;-2.388;2023-03-25T14:47:51;98036.47;;;13.42;64.29
43804;BME280;29430;52.924;-2.388;2023-03-25T14:52:50;98044.03;;;13.51;63.18
43804;BME280;29430;52.924;-2.388;2023-03-25T14:57:43;98049.19;;;13.57;61.86
43804;BME280;29430;52.924;-2.388;2023-03-25T15:02:36;98066.34;;;13.53;60.58
43804;BME280;29430;52.924;-2.388;2023-03-25T15:12:36;98065.88;;;13.35;62.45
43804;BME280;29430;52.924;-2.388;2023-03-25T15:22:36;98069.44;;;13.05;61.22
43804;BME280;29430;52.924;-2.388;2023-03-25T15:32:47;98059.94;;;12.92;62.81
43804;BME280;29430;52.924;-2.388;2023-03-25T15:37:55;98063.44;;;13.08;63.51
43804;BME280;29430;52.924;-2.388;2023-03-25T15:58:55;98056.69;;;12.80;59.65
43804;BME280;29430;52.924;-2.388;2023-03-25T16:04:06;98052.63;;;12.62;59.68
43804;BME280;29430;52.924;-2.388;2023-03-25T16:09:00;98058.88;;;12.47;59.61
43804;BME280;29430;52.924;-2.388;2023-03-25T16:14:11;98049.34;;;12.44;60.69
43804;BME280;29430;52.924;-2.388;2023-03-25T16:19:04;98062.41;;;12.47;59.85
43804;BME280;29430;52.924;-2.388;2023-03-25T16:24:02;98062.41;;;12.52;60.22
43804;BME280;29430;52.924;-2.388;2023-03-25T16:29:06;98062.13;;;12.49;60.53
43804;BME280;29430;52.924;-2.388;2023-03-25T16:33:58;98063.50;;;12.51;60.85
43804;BME280;29430;52.924;-2.388;2023-03-25T16:38:50;98057.81;;;12.53;62.36
43804;BME280;29430;52.924;-2.388;2023-03-25T16:43:42;98058.63;;;12.48;62.76
43804;BME280;29430;52.924;-2.388;2023-03-25T16:48:36;98067.84;;;12.42;63.26
43804;BME280;29430;52.924;-2.388;2023-03-25T16:53:35;98065.09;;;12.37;62.88
43804;BME280;29430;52.924;-2.388;2023-03-25T16:58:30;98063.19;;;12.32;64.57
43804;BME280;29430;52.924;-2.388;2023-03-25T17:09:16;98062.34;;;12.06;64.87
43804;BME280;29430;52.924;-2.388;2023-03-25T17:14:15;98055.75;;;11.92;64.81
43804;BME280;29430;52.924;-2.388;2023-03-25T17:19:12;98057.63;;;11.76;63.29
43804;BME280;29430;52.924;-2.388;2023-03-25T17:24:20;98050.25;;;11.66;63.22
43804;BME280;29430;52.924;-2.388;2023-03-25T17:29:13;98051.56;;;11.58;63.33
43804;BME280;29430;52.924;-2.388;2023-03-25T17:38:57;98056.66;;;11.44;63.87
43804;BME280;29430;52.924;-2.388;2023-03-25T17:43:54;98052.81;;;11.30;65.32
43804;BME280;29430;52.924;-2.388;2023-03-25T17:48:46;98051.94;;;11.19;65.21
43804;BME280;29430;52.924;-2.388;2023-03-25T17:53:40;98050.78;;;11.10;65.37
43804;BME280;29430;52.924;-2.388;2023-03-25T17:58:32;98059.44;;;11.02;66.09
43804;BME280;29430;52.924;-2.388;2023-03-25T18:03:29;98063.41;;;10.89;65.40
43804;BME280;29430;52.924;-2.388;2023-03-25T18:08:23;98067.38;;;10.76;66.16
43804;BME280;29430;52.924;-2.388;2023-03-25T18:13:15;98065.72;;;10.70;66.52
43804;BME280;29430;52.924;-2.388;2023-03-25T18:18:13;98071.88;;;10.60;67.12
43804;BME280;29430;52.924;-2.388;2023-03-25T18:23:06;98058.81;;;10.52;67.26
43804;BME280;29430;52.924;-2.388;2023-03-25T18:27:58;98057.13;;;10.46;67.75
43804;BME280;29430;52.924;-2.388;2023-03-25T18:32:49;98060.28;;;10.37;68.80
43804;BME280;29430;52.924;-2.388;2023-03-25T18:37:41;98059.59;;;10.25;68.31
43804;BME280;29430;52.924;-2.388;2023-03-25T18:42:33;98051.84;;;10.07;68.54
43804;BME280;29430;52.924;-2.388;2023-03-25T18:47:25;98044.41;;;9.92;69.96
43804;BME280;29430;52.924;-2.388;2023-03-25T18:52:16;98043.22;;;9.82;70.51
43804;BME280;29430;52.924;-2.388;2023-03-25T18:57:08;98046.44;;;9.79;71.33
43804;BME280;29430;52.924;-2.388;2023-03-25T19:02:00;98037.97;;;9.76;72.35
43804;BME280;29430;52.924;-2.388;2023-03-25T19:06:51;98035.97;;;9.66;72.25
43804;BME280;29430;52.924;-2.388;2023-03-25T19:11:44;98035.44;;;9.64;72.70
43804;BME280;29430;52.924;-2.388;2023-03-25T19:16:37;98031.28;;;9.56;72.99
43804;BME280;29430;52.924;-2.388;2023-03-25T19:21:29;98040.66;;;9.48;72.88
43804;BME280;29430;52.924;-2.388;2023-03-25T19:26:21;98043.78;;;9.40;73.10
43804;BME280;29430;52.924;-2.388;2023-03-25T19:31:13;98035.63;;;9.35;73.74
43804;BME280;29430;52.924;-2.388;2023-03-25T19:36:07;98036.56;;;9.24;74.32
43804;BME280;29430;52.924;-2.388;2023-03-25T19:41:07;98038.94;;;9.20;74.47
43804;BME280;29430;52.924;-2.388;2023-03-25T19:46:01;98038.38;;;9.18;75.20
43804;BME280;29430;52.924;-2.388;2023-03-25T19:50:54;98042.88;;;9.12;74.95
43804;BME280;29430;52.924;-2.388;2023-03-25T19:55:46;98026.84;;;9.06;75.30
43804;BME280;29430;52.924;-2.388;2023-03-25T20:00:37;98027.84;;;9.00;75.34
43804;BME280;29430;52.924;-2.388;2023-03-25T20:05:31;98031.78;;;8.92;76.06
43804;BME280;29430;52.924;-2.388;2023-03-25T20:10:26;98029.28;;;8.85;76.36
43804;BME280;29430;52.924;-2.388;2023-03-25T20:15:19;98036.16;;;8.76;76.77
43804;BME280;29430;52.924;-2.388;2023-03-25T20:20:12;98047.63;;;8.66;76.94
43804;BME280;29430;52.924;-2.388;2023-03-25T20:25:05;98047.00;;;8.59;77.01
43804;BME280;29430;52.924;-2.388;2023-03-25T20:29:57;98036.25;;;8.47;77.47
43804;BME280;29430;52.924;-2.388;2023-03-25T20:34:49;98039.34;;;8.39;77.68
43804;BME280;29430;52.924;-2.388;2023-03-25T20:39:41;98047.03;;;8.30;77.78
43804;BME280;29430;52.924;-2.388;2023-03-25T20:44:33;98043.50;;;8.13;78.43
43804;BME280;29430;52.924;-2.388;2023-03-25T20:49:25;98042.75;;;8.00;79.22
43804;BME280;29430;52.924;-2.388;2023-03-25T20:54:17;98043.47;;;7.96;79.79
43804;BME280;29430;52.924;-2.388;2023-03-25T20:59:09;98028.88;;;7.97;80.40
43804;BME280;29430;52.924;-2.388;2023-03-25T21:04:04;98022.91;;;7.95;80.36
43804;BME280;29430;52.924;-2.388;2023-03-25T21:08:56;98022.00;;;7.89;80.37
43804;BME280;29430;52.924;-2.388;2023-03-25T21:13:55;98033.19;;;7.81;81.42
43804;BME280;29430;52.924;-2.388;2023-03-25T21:18:47;98026.06;;;7.75;81.97
43804;BME280;29430;52.924;-2.388;2023-03-25T21:23:40;98017.41;;;7.73;82.49
43804;BME280;29430;52.924;-2.388;2023-03-25T21:28:35;98016.31;;;7.74;82.96
43804;BME280;29430;52.924;-2.388;2023-03-25T21:33:31;98025.72;;;7.71;83.52
43804;BME280;29430;52.924;-2.388;2023-03-25T21:38:24;98014.00;;;7.65;83.51
43804;BME280;29430;52.924;-2.388;2023-03-25T21:43:19;98001.72;;;7.58;83.45
43804;BME280;29430;52.924;-2.388;2023-03-25T21:48:11;98005.47;;;7.57;83.33
43804;BME280;29430;52.924;-2.388;2023-03-25T21:53:03;98000.78;;;7.52;83.28
43804;BME280;29430;52.924;-2.388;2023-03-25T21:57:58;97996.13;;;7.47;83.71
43804;BME280;29430;52.924;-2.388;2023-03-25T22:02:49;97997.69;;;7.43;83.63
43804;BME280;29430;52.924;-2.388;2023-03-25T22:07:48;97987.13;;;7.42;84.08
43804;BME280;29430;52.924;-2.388;2023-03-25T22:12:40;97982.47;;;7.37;84.01
43804;BME280;29430;52.924;-2.388;2023-03-25T22:17:32;97981.28;;;7.33;83.47
43804;BME280;29430;52.924;-2.388;2023-03-25T22:22:23;97976.13;;;7.31;83.47
43804;BME280;29430;52.924;-2.388;2023-03-25T22:27:15;97962.09;;;7.29;83.81
43804;BME280;29430;52.924;-2.388;2023-03-25T22:32:07;97964.19;;;7.27;83.76
43804;BME280;29430;52.924;-2.388;2023-03-25T22:36:59;97954.22;;;7.28;83.58
43804;BME280;29430;52.924;-2.388;2023-03-25T22:41:52;97953.63;;;7.26;83.41
43804;BME280;29430;52.924;-2.388;2023-03-25T22:46:46;97937.94;;;7.23;83.34
43804;BME280;29430;52.924;-2.388;2023-03-25T22:51:39;97937.69;;;7.24;84.20
43804;BME280;29430;52.924;-2.388;2023-03-25T22:56:31;97939.09;;;7.27;84.15
43804;BME280;29430;52.924;-2.388;2023-03-25T23:01:26;97929.72;;;7.29;83.82
43804;BME280;29430;52.924;-2.388;2023-03-25T23:06:20;97921.97;;;7.33;84.65
43804;BME280;29430;52.924;-2.388;2023-03-25T23:11:14;97916.09;;;7.36;84.78
43804;BME280;29430;52.924;-2.388;2023-03-25T23:16:11;97914.06;;;7.43;85.30
43804;BME280;29430;52.924;-2.388;2023-03-25T23:21:03;97910.63;;;7.48;85.22
43804;BME280;29430;52.924;-2.388;2023-03-25T23:26:05;97893.97;;;7.51;85.62
43804;BME280;29430;52.924;-2.388;2023-03-25T23:30:57;97894.53;;;7.53;86.44
43804;BME280;29430;52.924;-2.388;2023-03-25T23:35:49;97881.38;;;7.57;85.82
43804;BME280;29430;52.924;-2.388;2023-03-25T23:40:41;97874.13;;;7.57;85.96
43804;BME280;29430;52.924;-2.388;2023-03-25T23:45:33;97876.69;;;7.52;84.45
43804;BME280;29430;52.924;-2.388;2023-03-25T23:50:25;97870.06;;;7.43;84.21
43804;BME280;29430;52.924;-2.388;2023-03-25T23:55:17;97854.78;;;7.31;84.77
